Terminal Aerodrome Forecast
Issued by NWS

Home | Current Version | Previous Version | Text Only | Print | Product List | Glossary On
Versions: 1 2 3 4 5 6 7 8 9 10 11 12 13 14 15 16
079
FTUS41 KCLE 241727
TAFFDY
TAF
KFDY 241727Z 2418/2518 27012KT P6SM SCT060
     FM250100 25006KT P6SM SCT250
     FM251500 25012KT P6SM SCT100=

USA.gov is the U.S. government's official web portal to all federal, state and local government web resources and services.